Aeroporto :
LOGIN :

Iscrizione | Disclaimer

   EN    FR    IT 

 










Sommario :    VFR   VFR Marginale   IFR   IFR Intensivo   IFR Molto Intensivo
Visibilità : 
Base nubi : 
>= 8 km
>= 3000ft
5 / 8 km
1000 / 3000 ft
1500m / 5 km
500 / 1000 ft
800 / 1500m
200 / 500 ft
< 800m
< 200 ft
Simboli :   Temporali  Nebbia  Neve Forte  Precipitazioni Forti  Vento > 20 kt
SIGMETs :   Varie  Temporali  Ghiacco  Turbolenza  Onda orograficha  Ceneri Vulcaniche






- Altitudine del aeroporto : 37 ft


EHVL - Vlieland Heliport

ULTIMO METAR :
  • 031555Z AUTO 29012KT 9999 FEW027 SCT032 BKN036 08/01 Q1017 BLU

METARs OBSOLETI :
  • 031525Z AUTO 29013KT 9999 FEW028 08/01 Q1017 BLU
  • 031455Z AUTO 30012KT 9999 FEW028 08/01 Q1017 BLU
  • 031425Z AUTO 30013KT 9999 FEW032 BKN046 OVC052 08/02 Q1017 BLU
  • 031355Z AUTO 28010KT 9999 BKN039 OVC043 07/02 Q1016 BLU
  • 031334Z AUTO 26015KT 9999 FEW013 BKN016 BKN020 06/02 Q1016 WHT

Previsioni scadute.



MetMap, La meteo Aeronautica in un colpo d'occhio ! - Copyright ORBIFLY Dicembre 2007 - Disclaimer

ORBIFLY MET'MAP TEAM :

Programmazione e sviluppo : Alexandra Zaïnal
Concezione : Baudouin d'Aumeries
Aiuto per la programmazione : Marc-Olivier Méhu
Supporto tecnico e logistico : Manuel Goepfert
Aiuto per la traduzione : Arnaldo La Scala

Contatto : metmap@orbifly.com




FONTI E CREDITI :

   NOAA